sensor_id;sensor_type;location;lat;lon;timestamp;P1;durP1;ratioP1;P2;durP2;ratioP2
69502;SDS011;56704;54.242;12.442;2024-02-15T00:00:43;24.33;;;6.97;;
69502;SDS011;56704;54.242;12.442;2024-02-15T00:03:10;22.92;;;6.18;;
69502;SDS011;56704;54.242;12.442;2024-02-15T00:05:39;24.27;;;7.03;;
69502;SDS011;56704;54.242;12.442;2024-02-15T00:08:07;30.48;;;7.68;;
69502;SDS011;56704;54.242;12.442;2024-02-15T00:10:34;22.53;;;6.97;;
69502;SDS011;56704;54.242;12.442;2024-02-15T00:13:01;25.30;;;7.40;;
69502;SDS011;56704;54.242;12.442;2024-02-15T00:15:28;24.80;;;7.88;;
69502;SDS011;56704;54.242;12.442;2024-02-15T00:17:55;27.30;;;7.10;;
69502;SDS011;56704;54.242;12.442;2024-02-15T00:20:21;24.88;;;6.97;;
69502;SDS011;56704;54.242;12.442;2024-02-15T00:22:49;27.67;;;7.00;;
69502;SDS011;56704;54.242;12.442;2024-02-15T00:25:17;25.92;;;6.93;;
69502;SDS011;56704;54.242;12.442;2024-02-15T00:27:44;25.48;;;7.60;;
69502;SDS011;56704;54.242;12.442;2024-02-15T00:30:12;20.90;;;6.43;;
69502;SDS011;56704;54.242;12.442;2024-02-15T00:32:39;24.02;;;6.43;;
69502;SDS011;56704;54.242;12.442;2024-02-15T00:35:06;19.67;;;6.47;;
69502;SDS011;56704;54.242;12.442;2024-02-15T00:37:34;25.80;;;7.13;;
69502;SDS011;56704;54.242;12.442;2024-02-15T00:40:02;26.55;;;7.07;;
69502;SDS011;56704;54.242;12.442;2024-02-15T00:42:30;23.88;;;6.85;;
69502;SDS011;56704;54.242;12.442;2024-02-15T00:44:57;22.50;;;6.47;;
69502;SDS011;56704;54.242;12.442;2024-02-15T00:47:24;25.57;;;6.20;;
69502;SDS011;56704;54.242;12.442;2024-02-15T00:49:51;23.70;;;6.60;;
69502;SDS011;56704;54.242;12.442;2024-02-15T00:52:17;21.98;;;6.35;;
69502;SDS011;56704;54.242;12.442;2024-02-15T00:54:44;22.40;;;6.30;;
69502;SDS011;56704;54.242;12.442;2024-02-15T00:57:12;23.92;;;6.60;;
69502;SDS011;56704;54.242;12.442;2024-02-15T00:59:38;23.27;;;6.93;;
69502;SDS011;56704;54.242;12.442;2024-02-15T01:02:05;24.65;;;6.85;;
69502;SDS011;56704;54.242;12.442;2024-02-15T01:04:32;21.70;;;6.10;;
69502;SDS011;56704;54.242;12.442;2024-02-15T01:06:58;22.80;;;6.55;;
69502;SDS011;56704;54.242;12.442;2024-02-15T01:09:25;22.00;;;7.10;;
69502;SDS011;56704;54.242;12.442;2024-02-15T01:11:51;21.47;;;5.80;;
69502;SDS011;56704;54.242;12.442;2024-02-15T01:14:19;25.20;;;6.85;;
69502;SDS011;56704;54.242;12.442;2024-02-15T01:16:46;21.33;;;6.65;;
69502;SDS011;56704;54.242;12.442;2024-02-15T01:19:13;20.08;;;5.70;;
69502;SDS011;56704;54.242;12.442;2024-02-15T01:21:39;22.17;;;6.53;;
69502;SDS011;56704;54.242;12.442;2024-02-15T01:24:08;21.43;;;6.07;;
69502;SDS011;56704;54.242;12.442;2024-02-15T01:26:34;22.85;;;6.40;;
69502;SDS011;56704;54.242;12.442;2024-02-15T01:29:01;23.02;;;6.20;;
69502;SDS011;56704;54.242;12.442;2024-02-15T01:31:29;23.20;;;5.60;;
69502;SDS011;56704;54.242;12.442;2024-02-15T01:33:56;22.92;;;6.25;;
69502;SDS011;56704;54.242;12.442;2024-02-15T01:36:23;25.10;;;5.83;;
69502;SDS011;56704;54.242;12.442;2024-02-15T01:38:49;23.05;;;6.55;;
69502;SDS011;56704;54.242;12.442;2024-02-15T01:41:16;23.90;;;6.25;;
69502;SDS011;56704;54.242;12.442;2024-02-15T01:43:43;22.70;;;6.03;;
69502;SDS011;56704;54.242;12.442;2024-02-15T01:46:09;23.25;;;6.30;;
69502;SDS011;56704;54.242;12.442;2024-02-15T01:48:39;24.27;;;6.37;;
69502;SDS011;56704;54.242;12.442;2024-02-15T01:51:07;25.67;;;5.95;;
69502;SDS011;56704;54.242;12.442;2024-02-15T01:53:35;21.55;;;5.82;;
69502;SDS011;56704;54.242;12.442;2024-02-15T01:56:01;20.63;;;6.35;;
69502;SDS011;56704;54.242;12.442;2024-02-15T01:58:28;20.98;;;5.63;;
69502;SDS011;56704;54.242;12.442;2024-02-15T02:00:57;20.93;;;5.60;;
69502;SDS011;56704;54.242;12.442;2024-02-15T02:03:24;23.25;;;6.13;;
69502;SDS011;56704;54.242;12.442;2024-02-15T02:05:52;19.15;;;6.25;;
69502;SDS011;56704;54.242;12.442;2024-02-15T02:08:19;17.85;;;4.95;;
69502;SDS011;56704;54.242;12.442;2024-02-15T02:10:46;24.20;;;6.15;;
69502;SDS011;56704;54.242;12.442;2024-02-15T02:13:12;20.57;;;5.53;;
69502;SDS011;56704;54.242;12.442;2024-02-15T02:15:40;22.38;;;5.80;;
69502;SDS011;56704;54.242;12.442;2024-02-15T02:18:06;18.92;;;6.40;;
69502;SDS011;56704;54.242;12.442;2024-02-15T02:20:34;18.83;;;5.65;;
69502;SDS011;56704;54.242;12.442;2024-02-15T02:23:03;17.42;;;4.75;;
69502;SDS011;56704;54.242;12.442;2024-02-15T02:25:34;20.90;;;5.40;;
69502;SDS011;56704;54.242;12.442;2024-02-15T02:28:01;18.17;;;4.53;;
69502;SDS011;56704;54.242;12.442;2024-02-15T02:30:28;22.45;;;5.43;;
69502;SDS011;56704;54.242;12.442;2024-02-15T02:32:55;17.45;;;5.00;;
69502;SDS011;56704;54.242;12.442;2024-02-15T02:35:24;20.17;;;5.78;;
69502;SDS011;56704;54.242;12.442;2024-02-15T02:37:51;16.80;;;4.87;;
69502;SDS011;56704;54.242;12.442;2024-02-15T02:40:18;16.60;;;4.60;;
69502;SDS011;56704;54.242;12.442;2024-02-15T02:42:50;16.55;;;4.70;;
69502;SDS011;56704;54.242;12.442;2024-02-15T02:45:18;14.52;;;4.28;;
69502;SDS011;56704;54.242;12.442;2024-02-15T02:47:47;18.35;;;4.35;;
69502;SDS011;56704;54.242;12.442;2024-02-15T02:50:13;13.67;;;3.80;;
69502;SDS011;56704;54.242;12.442;2024-02-15T02:52:40;17.83;;;4.28;;
69502;SDS011;56704;54.242;12.442;2024-02-15T02:55:07;16.77;;;4.20;;
69502;SDS011;56704;54.242;12.442;2024-02-15T02:57:34;15.80;;;4.25;;
69502;SDS011;56704;54.242;12.442;2024-02-15T03:00:04;15.93;;;4.15;;
69502;SDS011;56704;54.242;12.442;2024-02-15T03:02:33;16.17;;;3.93;;
69502;SDS011;56704;54.242;12.442;2024-02-15T03:05:01;15.00;;;3.60;;
69502;SDS011;56704;54.242;12.442;2024-02-15T03:07:29;13.15;;;4.03;;
69502;SDS011;56704;54.242;12.442;2024-02-15T03:09:59;13.55;;;3.88;;
69502;SDS011;56704;54.242;12.442;2024-02-15T03:12:25;14.20;;;4.20;;
69502;SDS011;56704;54.242;12.442;2024-02-15T03:14:54;17.67;;;4.23;;
69502;SDS011;56704;54.242;12.442;2024-02-15T03:17:22;14.77;;;3.97;;
69502;SDS011;56704;54.242;12.442;2024-02-15T03:19:49;12.57;;;3.75;;
69502;SDS011;56704;54.242;12.442;2024-02-15T03:22:16;11.43;;;3.53;;
69502;SDS011;56704;54.242;12.442;2024-02-15T03:24:42;15.35;;;3.88;;
69502;SDS011;56704;54.242;12.442;2024-02-15T03:27:09;13.40;;;3.77;;
69502;SDS011;56704;54.242;12.442;2024-02-15T03:29:36;12.98;;;3.38;;
69502;SDS011;56704;54.242;12.442;2024-02-15T03:32:03;15.55;;;4.00;;
69502;SDS011;56704;54.242;12.442;2024-02-15T03:34:33;11.95;;;3.22;;
69502;SDS011;56704;54.242;12.442;2024-02-15T03:36:59;16.45;;;3.85;;
69502;SDS011;56704;54.242;12.442;2024-02-15T03:39:29;12.87;;;3.90;;
69502;SDS011;56704;54.242;12.442;2024-02-15T03:41:58;10.90;;;3.58;;
69502;SDS011;56704;54.242;12.442;2024-02-15T03:44:24;13.32;;;3.67;;
69502;SDS011;56704;54.242;12.442;2024-02-15T03:46:52;16.52;;;4.20;;
69502;SDS011;56704;54.242;12.442;2024-02-15T03:49:18;13.38;;;3.47;;
69502;SDS011;56704;54.242;12.442;2024-02-15T03:51:47;13.80;;;3.23;;
69502;SDS011;56704;54.242;12.442;2024-02-15T03:54:14;11.85;;;3.55;;
69502;SDS011;56704;54.242;12.442;2024-02-15T03:56:46;12.63;;;3.38;;
69502;SDS011;56704;54.242;12.442;2024-02-15T03:59:15;13.98;;;3.90;;
69502;SDS011;56704;54.242;12.442;2024-02-15T04:01:41;11.27;;;3.38;;
69502;SDS011;56704;54.242;12.442;2024-02-15T04:04:08;13.90;;;3.97;;
69502;SDS011;56704;54.242;12.442;2024-02-15T04:06:34;13.48;;;3.67;;
69502;SDS011;56704;54.242;12.442;2024-02-15T04:09:02;12.27;;;3.55;;
69502;SDS011;56704;54.242;12.442;2024-02-15T04:11:29;14.75;;;3.92;;
69502;SDS011;56704;54.242;12.442;2024-02-15T04:13:57;15.95;;;4.22;;
69502;SDS011;56704;54.242;12.442;2024-02-15T04:16:24;14.40;;;3.90;;
69502;SDS011;56704;54.242;12.442;2024-02-15T04:18:51;15.95;;;3.95;;
69502;SDS011;56704;54.242;12.442;2024-02-15T04:21:18;16.80;;;4.40;;
69502;SDS011;56704;54.242;12.442;2024-02-15T04:23:44;14.20;;;4.05;;
69502;SDS011;56704;54.242;12.442;2024-02-15T04:26:12;11.32;;;3.30;;
69502;SDS011;56704;54.242;12.442;2024-02-15T04:28:39;13.70;;;3.17;;
69502;SDS011;56704;54.242;12.442;2024-02-15T04:31:06;13.02;;;3.63;;
69502;SDS011;56704;54.242;12.442;2024-02-15T04:33:33;12.60;;;3.65;;
69502;SDS011;56704;54.242;12.442;2024-02-15T04:36:00;11.80;;;3.83;;
69502;SDS011;56704;54.242;12.442;2024-02-15T04:38:29;11.48;;;3.70;;
69502;SDS011;56704;54.242;12.442;2024-02-15T04:40:56;11.77;;;3.37;;
69502;SDS011;56704;54.242;12.442;2024-02-15T04:43:26;9.50;;;3.05;;
69502;SDS011;56704;54.242;12.442;2024-02-15T04:45:53;11.30;;;3.30;;
69502;SDS011;56704;54.242;12.442;2024-02-15T04:48:20;11.68;;;3.50;;
69502;SDS011;56704;54.242;12.442;2024-02-15T04:50:49;14.68;;;3.63;;
69502;SDS011;56704;54.242;12.442;2024-02-15T04:53:17;11.17;;;3.20;;
69502;SDS011;56704;54.242;12.442;2024-02-15T04:55:43;8.40;;;2.47;;
69502;SDS011;56704;54.242;12.442;2024-02-15T04:58:10;12.02;;;3.05;;
69502;SDS011;56704;54.242;12.442;2024-02-15T05:00:38;9.25;;;2.80;;
69502;SDS011;56704;54.242;12.442;2024-02-15T05:03:05;10.43;;;2.92;;
69502;SDS011;56704;54.242;12.442;2024-02-15T05:05:32;10.67;;;2.77;;
69502;SDS011;56704;54.242;12.442;2024-02-15T05:07:59;9.75;;;2.70;;
69502;SDS011;56704;54.242;12.442;2024-02-15T05:10:26;10.70;;;3.13;;
69502;SDS011;56704;54.242;12.442;2024-02-15T05:12:53;8.43;;;2.25;;
69502;SDS011;56704;54.242;12.442;2024-02-15T05:15:20;11.10;;;2.80;;
69502;SDS011;56704;54.242;12.442;2024-02-15T05:17:51;9.70;;;2.90;;
69502;SDS011;56704;54.242;12.442;2024-02-15T05:20:19;10.30;;;3.05;;
69502;SDS011;56704;54.242;12.442;2024-02-15T05:22:46;9.80;;;3.50;;
69502;SDS011;56704;54.242;12.442;2024-02-15T05:25:12;10.07;;;2.90;;
69502;SDS011;56704;54.242;12.442;2024-02-15T05:27:40;12.40;;;3.10;;
69502;SDS011;56704;54.242;12.442;2024-02-15T05:30:08;10.50;;;3.43;;
69502;SDS011;56704;54.242;12.442;2024-02-15T05:32:36;11.60;;;3.75;;
69502;SDS011;56704;54.242;12.442;2024-02-15T05:35:09;11.68;;;3.58;;
69502;SDS011;56704;54.242;12.442;2024-02-15T05:37:36;11.68;;;3.50;;
69502;SDS011;56704;54.242;12.442;2024-02-15T05:40:03;11.80;;;3.60;;
69502;SDS011;56704;54.242;12.442;2024-02-15T05:42:30;10.97;;;3.40;;
69502;SDS011;56704;54.242;12.442;2024-02-15T05:47:40;13.98;;;4.13;;
69502;SDS011;56704;54.242;12.442;2024-02-15T05:50:07;14.02;;;3.70;;
69502;SDS011;56704;54.242;12.442;2024-02-15T05:52:35;14.30;;;3.58;;
69502;SDS011;56704;54.242;12.442;2024-02-15T05:55:02;13.33;;;3.80;;
69502;SDS011;56704;54.242;12.442;2024-02-15T05:57:29;13.25;;;3.85;;
69502;SDS011;56704;54.242;12.442;2024-02-15T05:59:56;13.35;;;3.70;;
69502;SDS011;56704;54.242;12.442;2024-02-15T06:02:27;16.08;;;4.60;;
69502;SDS011;56704;54.242;12.442;2024-02-15T06:04:53;17.13;;;4.97;;
69502;SDS011;56704;54.242;12.442;2024-02-15T06:07:25;15.33;;;4.43;;
69502;SDS011;56704;54.242;12.442;2024-02-15T06:09:54;14.70;;;4.22;;
69502;SDS011;56704;54.242;12.442;2024-02-15T06:12:21;16.10;;;4.40;;
69502;SDS011;56704;54.242;12.442;2024-02-15T06:14:48;19.65;;;4.88;;
69502;SDS011;56704;54.242;12.442;2024-02-15T06:17:14;16.63;;;4.72;;
69502;SDS011;56704;54.242;12.442;2024-02-15T06:19:41;14.10;;;4.47;;
69502;SDS011;56704;54.242;12.442;2024-02-15T06:22:08;18.45;;;4.85;;
69502;SDS011;56704;54.242;12.442;2024-02-15T06:24:37;14.55;;;4.60;;
69502;SDS011;56704;54.242;12.442;2024-02-15T06:27:05;14.98;;;4.43;;
69502;SDS011;56704;54.242;12.442;2024-02-15T06:29:32;14.98;;;4.28;;
69502;SDS011;56704;54.242;12.442;2024-02-15T06:32:16;15.07;;;4.13;;
69502;SDS011;56704;54.242;12.442;2024-02-15T06:35:00;12.25;;;4.18;;
69502;SDS011;56704;54.242;12.442;2024-02-15T06:37:44;13.35;;;4.10;;
69502;SDS011;56704;54.242;12.442;2024-02-15T06:40:28;14.32;;;3.70;;
69502;SDS011;56704;54.242;12.442;2024-02-15T06:42:57;16.55;;;4.30;;
69502;SDS011;56704;54.242;12.442;2024-02-15T06:45:23;14.07;;;4.03;;
69502;SDS011;56704;54.242;12.442;2024-02-15T06:47:51;13.30;;;3.83;;
69502;SDS011;56704;54.242;12.442;2024-02-15T06:50:17;14.65;;;3.67;;
69502;SDS011;56704;54.242;12.442;2024-02-15T06:52:44;15.15;;;3.58;;
69502;SDS011;56704;54.242;12.442;2024-02-15T06:55:14;16.45;;;3.88;;
69502;SDS011;56704;54.242;12.442;2024-02-15T06:57:40;11.37;;;3.40;;
69502;SDS011;56704;54.242;12.442;2024-02-15T07:00:09;11.30;;;3.40;;
69502;SDS011;56704;54.242;12.442;2024-02-15T07:02:40;14.25;;;4.00;;
69502;SDS011;56704;54.242;12.442;2024-02-15T07:05:09;13.73;;;3.97;;
69502;SDS011;56704;54.242;12.442;2024-02-15T07:07:36;12.52;;;3.80;;
69502;SDS011;56704;54.242;12.442;2024-02-15T07:10:04;11.53;;;3.27;;
69502;SDS011;56704;54.242;12.442;2024-02-15T07:12:31;11.10;;;3.22;;
69502;SDS011;56704;54.242;12.442;2024-02-15T07:14:58;14.32;;;3.47;;
69502;SDS011;56704;54.242;12.442;2024-02-15T07:17:27;12.48;;;3.05;;
69502;SDS011;56704;54.242;12.442;2024-02-15T07:19:54;11.32;;;3.25;;
69502;SDS011;56704;54.242;12.442;2024-02-15T07:22:21;18.37;;;4.50;;
69502;SDS011;56704;54.242;12.442;2024-02-15T07:24:48;13.35;;;3.70;;
69502;SDS011;56704;54.242;12.442;2024-02-15T07:27:14;11.48;;;3.67;;
69502;SDS011;56704;54.242;12.442;2024-02-15T07:29:41;12.60;;;3.78;;
69502;SDS011;56704;54.242;12.442;2024-02-15T07:32:08;9.82;;;2.75;;
69502;SDS011;56704;54.242;12.442;2024-02-15T07:34:36;14.10;;;3.97;;
69502;SDS011;56704;54.242;12.442;2024-02-15T07:37:03;14.23;;;4.28;;
69502;SDS011;56704;54.242;12.442;2024-02-15T07:39:30;12.02;;;3.22;;
69502;SDS011;56704;54.242;12.442;2024-02-15T07:41:57;14.95;;;3.90;;
69502;SDS011;56704;54.242;12.442;2024-02-15T07:44:24;15.05;;;3.47;;
69502;SDS011;56704;54.242;12.442;2024-02-15T07:46:55;13.77;;;3.80;;
69502;SDS011;56704;54.242;12.442;2024-02-15T07:49:21;14.70;;;3.63;;
69502;SDS011;56704;54.242;12.442;2024-02-15T07:51:49;13.38;;;3.72;;
69502;SDS011;56704;54.242;12.442;2024-02-15T07:54:17;14.57;;;3.75;;
69502;SDS011;56704;54.242;12.442;2024-02-15T07:56:45;11.73;;;3.75;;
69502;SDS011;56704;54.242;12.442;2024-02-15T07:59:13;9.83;;;3.20;;
69502;SDS011;56704;54.242;12.442;2024-02-15T08:01:41;12.82;;;3.38;;
69502;SDS011;56704;54.242;12.442;2024-02-15T08:04:08;13.82;;;3.60;;
69502;SDS011;56704;54.242;12.442;2024-02-15T08:06:34;13.80;;;3.65;;
69502;SDS011;56704;54.242;12.442;2024-02-15T08:09:04;13.52;;;2.80;;
69502;SDS011;56704;54.242;12.442;2024-02-15T08:11:31;15.70;;;3.93;;
69502;SDS011;56704;54.242;12.442;2024-02-15T08:13:58;10.63;;;3.33;;
69502;SDS011;56704;54.242;12.442;2024-02-15T08:16:25;12.55;;;3.40;;
69502;SDS011;56704;54.242;12.442;2024-02-15T08:18:53;10.07;;;2.67;;
69502;SDS011;56704;54.242;12.442;2024-02-15T08:21:24;11.32;;;2.92;;
69502;SDS011;56704;54.242;12.442;2024-02-15T08:23:51;9.93;;;2.73;;
69502;SDS011;56704;54.242;12.442;2024-02-15T08:26:19;11.00;;;2.95;;
69502;SDS011;56704;54.242;12.442;2024-02-15T08:28:46;10.40;;;3.00;;
69502;SDS011;56704;54.242;12.442;2024-02-15T08:31:12;11.20;;;3.15;;
69502;SDS011;56704;54.242;12.442;2024-02-15T08:33:40;9.88;;;2.85;;
69502;SDS011;56704;54.242;12.442;2024-02-15T08:36:08;9.30;;;2.20;;
69502;SDS011;56704;54.242;12.442;2024-02-15T08:38:35;9.50;;;2.55;;
69502;SDS011;56704;54.242;12.442;2024-02-15T08:41:02;10.43;;;2.42;;
69502;SDS011;56704;54.242;12.442;2024-02-15T08:43:31;9.13;;;2.70;;
69502;SDS011;56704;54.242;12.442;2024-02-15T08:45:58;9.43;;;2.50;;
69502;SDS011;56704;54.242;12.442;2024-02-15T08:48:26;6.93;;;1.93;;
69502;SDS011;56704;54.242;12.442;2024-02-15T08:50:52;7.68;;;2.28;;
69502;SDS011;56704;54.242;12.442;2024-02-15T08:53:19;7.55;;;2.42;;
69502;SDS011;56704;54.242;12.442;2024-02-15T08:55:46;9.10;;;2.13;;
69502;SDS011;56704;54.242;12.442;2024-02-15T08:58:13;8.32;;;2.20;;
69502;SDS011;56704;54.242;12.442;2024-02-15T09:00:41;9.73;;;2.17;;
69502;SDS011;56704;54.242;12.442;2024-02-15T09:03:09;11.32;;;2.42;;
69502;SDS011;56704;54.242;12.442;2024-02-15T09:05:36;9.48;;;1.92;;
69502;SDS011;56704;54.242;12.442;2024-02-15T09:08:03;10.57;;;2.78;;
69502;SDS011;56704;54.242;12.442;2024-02-15T09:10:30;8.88;;;2.70;;
69502;SDS011;56704;54.242;12.442;2024-02-15T09:12:57;9.50;;;2.30;;
69502;SDS011;56704;54.242;12.442;2024-02-15T09:15:23;12.70;;;3.10;;
69502;SDS011;56704;54.242;12.442;2024-02-15T09:17:52;9.82;;;2.28;;
69502;SDS011;56704;54.242;12.442;2024-02-15T09:20:19;13.32;;;3.50;;
69502;SDS011;56704;54.242;12.442;2024-02-15T09:22:47;13.13;;;3.17;;
69502;SDS011;56704;54.242;12.442;2024-02-15T09:25:15;11.20;;;3.00;;
69502;SDS011;56704;54.242;12.442;2024-02-15T09:27:42;11.93;;;3.42;;
69502;SDS011;56704;54.242;12.442;2024-02-15T09:30:09;14.15;;;3.58;;
69502;SDS011;56704;54.242;12.442;2024-02-15T09:32:37;13.93;;;3.55;;
69502;SDS011;56704;54.242;12.442;2024-02-15T09:35:05;13.65;;;3.70;;
69502;SDS011;56704;54.242;12.442;2024-02-15T09:37:33;14.93;;;3.63;;
69502;SDS011;56704;54.242;12.442;2024-02-15T09:40:00;12.57;;;3.85;;
69502;SDS011;56704;54.242;12.442;2024-02-15T09:42:31;14.88;;;4.00;;
69502;SDS011;56704;54.242;12.442;2024-02-15T09:44:59;15.43;;;3.85;;
69502;SDS011;56704;54.242;12.442;2024-02-15T09:47:27;16.52;;;4.30;;
69502;SDS011;56704;54.242;12.442;2024-02-15T09:50:00;16.83;;;4.80;;
69502;SDS011;56704;54.242;12.442;2024-02-15T09:52:29;13.18;;;4.15;;
69502;SDS011;56704;54.242;12.442;2024-02-15T09:54:58;18.48;;;4.90;;
69502;SDS011;56704;54.242;12.442;2024-02-15T09:57:28;14.73;;;4.10;;
69502;SDS011;56704;54.242;12.442;2024-02-15T09:59:57;15.57;;;4.57;;
69502;SDS011;56704;54.242;12.442;2024-02-15T10:02:24;15.17;;;4.93;;
69502;SDS011;56704;54.242;12.442;2024-02-15T10:04:52;16.10;;;4.55;;
69502;SDS011;56704;54.242;12.442;2024-02-15T10:07:21;16.38;;;4.47;;
69502;SDS011;56704;54.242;12.442;2024-02-15T10:09:49;15.10;;;4.53;;
69502;SDS011;56704;54.242;12.442;2024-02-15T10:12:16;17.23;;;5.07;;
69502;SDS011;56704;54.242;12.442;2024-02-15T10:14:47;21.57;;;5.20;;
69502;SDS011;56704;54.242;12.442;2024-02-15T10:17:16;20.40;;;5.90;;
69502;SDS011;56704;54.242;12.442;2024-02-15T10:19:45;21.35;;;5.47;;
69502;SDS011;56704;54.242;12.442;2024-02-15T10:22:28;23.02;;;5.43;;
69502;SDS011;56704;54.242;12.442;2024-02-15T10:24:58;23.75;;;5.47;;
69502;SDS011;56704;54.242;12.442;2024-02-15T10:27:36;23.40;;;5.73;;
69502;SDS011;56704;54.242;12.442;2024-02-15T10:30:13;22.83;;;5.65;;
69502;SDS011;56704;54.242;12.442;2024-02-15T10:32:41;23.90;;;5.78;;
69502;SDS011;56704;54.242;12.442;2024-02-15T10:35:08;22.23;;;5.97;;
69502;SDS011;56704;54.242;12.442;2024-02-15T10:37:35;24.60;;;5.85;;
69502;SDS011;56704;54.242;12.442;2024-02-15T10:40:06;24.03;;;5.83;;
69502;SDS011;56704;54.242;12.442;2024-02-15T10:42:34;24.52;;;5.70;;
69502;SDS011;56704;54.242;12.442;2024-02-15T10:45:03;23.98;;;6.65;;
69502;SDS011;56704;54.242;12.442;2024-02-15T10:47:30;22.73;;;6.35;;
69502;SDS011;56704;54.242;12.442;2024-02-15T10:49:57;24.30;;;6.13;;
69502;SDS011;56704;54.242;12.442;2024-02-15T10:52:24;23.33;;;5.80;;
69502;SDS011;56704;54.242;12.442;2024-02-15T10:54:56;25.23;;;5.80;;
69502;SDS011;56704;54.242;12.442;2024-02-15T10:57:31;22.00;;;5.82;;
69502;SDS011;56704;54.242;12.442;2024-02-15T10:59:59;25.13;;;6.07;;
69502;SDS011;56704;54.242;12.442;2024-02-15T11:02:37;20.08;;;5.38;;
69502;SDS011;56704;54.242;12.442;2024-02-15T11:05:09;19.37;;;5.50;;
69502;SDS011;56704;54.242;12.442;2024-02-15T11:07:39;20.45;;;5.28;;
69502;SDS011;56704;54.242;12.442;2024-02-15T11:10:06;17.70;;;4.85;;
69502;SDS011;56704;54.242;12.442;2024-02-15T11:12:36;24.70;;;5.80;;
69502;SDS011;56704;54.242;12.442;2024-02-15T11:15:04;22.35;;;6.18;;
69502;SDS011;56704;54.242;12.442;2024-02-15T11:17:47;21.90;;;5.90;;
69502;SDS011;56704;54.242;12.442;2024-02-15T11:23:24;20.77;;;5.65;;
69502;SDS011;56704;54.242;12.442;2024-02-15T11:25:52;18.20;;;5.25;;
69502;SDS011;56704;54.242;12.442;2024-02-15T11:28:38;16.33;;;4.72;;
69502;SDS011;56704;54.242;12.442;2024-02-15T11:31:08;21.37;;;5.10;;
69502;SDS011;56704;54.242;12.442;2024-02-15T11:33:37;17.48;;;4.90;;
69502;SDS011;56704;54.242;12.442;2024-02-15T11:36:05;15.93;;;5.15;;
69502;SDS011;56704;54.242;12.442;2024-02-15T11:38:32;18.80;;;4.70;;
69502;SDS011;56704;54.242;12.442;2024-02-15T11:41:00;18.38;;;4.88;;
69502;SDS011;56704;54.242;12.442;2024-02-15T11:43:46;15.53;;;4.63;;
69502;SDS011;56704;54.242;12.442;2024-02-15T11:46:19;18.00;;;5.03;;
69502;SDS011;56704;54.242;12.442;2024-02-15T11:48:46;19.52;;;5.15;;
69502;SDS011;56704;54.242;12.442;2024-02-15T11:51:24;18.30;;;4.88;;
69502;SDS011;56704;54.242;12.442;2024-02-15T11:53:58;15.68;;;3.60;;
69502;SDS011;56704;54.242;12.442;2024-02-15T11:56:32;16.90;;;4.70;;
69502;SDS011;56704;54.242;12.442;2024-02-15T11:59:03;15.80;;;4.78;;
69502;SDS011;56704;54.242;12.442;2024-02-15T12:01:31;15.88;;;4.35;;
69502;SDS011;56704;54.242;12.442;2024-02-15T12:04:15;13.82;;;4.25;;
69502;SDS011;56704;54.242;12.442;2024-02-15T12:07:00;11.65;;;3.80;;
69502;SDS011;56704;54.242;12.442;2024-02-15T12:09:44;14.27;;;4.70;;
69502;SDS011;56704;54.242;12.442;2024-02-15T12:12:28;10.27;;;3.50;;
69502;SDS011;56704;54.242;12.442;2024-02-15T12:15:14;10.52;;;3.10;;
69502;SDS011;56704;54.242;12.442;2024-02-15T12:18:12;11.85;;;3.38;;
69502;SDS011;56704;54.242;12.442;2024-02-15T12:20:57;11.95;;;3.45;;
69502;SDS011;56704;54.242;12.442;2024-02-15T12:23:24;12.10;;;3.40;;
69502;SDS011;56704;54.242;12.442;2024-02-15T12:25:51;14.20;;;3.75;;
69502;SDS011;56704;54.242;12.442;2024-02-15T12:28:18;13.60;;;4.40;;
69502;SDS011;56704;54.242;12.442;2024-02-15T12:30:46;10.70;;;3.40;;
69502;SDS011;56704;54.242;12.442;2024-02-15T12:33:20;10.35;;;3.00;;
69502;SDS011;56704;54.242;12.442;2024-02-15T12:35:47;12.83;;;3.67;;
69502;SDS011;56704;54.242;12.442;2024-02-15T12:38:15;7.93;;;2.45;;
69502;SDS011;56704;54.242;12.442;2024-02-15T12:40:42;15.00;;;4.15;;
69502;SDS011;56704;54.242;12.442;2024-02-15T12:43:09;11.10;;;3.67;;
69502;SDS011;56704;54.242;12.442;2024-02-15T12:45:37;11.82;;;3.63;;
69502;SDS011;56704;54.242;12.442;2024-02-15T12:48:06;10.93;;;3.43;;
69502;SDS011;56704;54.242;12.442;2024-02-15T12:50:33;12.07;;;3.88;;
69502;SDS011;56704;54.242;12.442;2024-02-15T12:53:01;13.20;;;3.92;;
69502;SDS011;56704;54.242;12.442;2024-02-15T12:55:28;13.05;;;3.30;;
69502;SDS011;56704;54.242;12.442;2024-02-15T12:57:59;13.20;;;4.00;;
69502;SDS011;56704;54.242;12.442;2024-02-15T13:00:29;13.00;;;3.60;;
69502;SDS011;56704;54.242;12.442;2024-02-15T13:02:58;12.07;;;3.58;;
69502;SDS011;56704;54.242;12.442;2024-02-15T13:05:29;10.38;;;4.10;;
69502;SDS011;56704;54.242;12.442;2024-02-15T13:07:57;10.80;;;3.42;;
69502;SDS011;56704;54.242;12.442;2024-02-15T13:10:24;9.40;;;3.03;;
69502;SDS011;56704;54.242;12.442;2024-02-15T13:12:51;8.97;;;2.87;;
69502;SDS011;56704;54.242;12.442;2024-02-15T13:15:20;12.40;;;3.70;;
69502;SDS011;56704;54.242;12.442;2024-02-15T13:17:52;9.23;;;3.00;;
69502;SDS011;56704;54.242;12.442;2024-02-15T13:20:20;9.23;;;2.92;;
69502;SDS011;56704;54.242;12.442;2024-02-15T13:22:58;9.43;;;3.17;;
69502;SDS011;56704;54.242;12.442;2024-02-15T13:25:27;11.10;;;3.47;;
69502;SDS011;56704;54.242;12.442;2024-02-15T13:27:54;11.80;;;2.83;;
69502;SDS011;56704;54.242;12.442;2024-02-15T13:30:21;10.48;;;3.28;;
69502;SDS011;56704;54.242;12.442;2024-02-15T13:32:51;11.30;;;3.17;;
69502;SDS011;56704;54.242;12.442;2024-02-15T13:35:19;13.93;;;3.63;;
69502;SDS011;56704;54.242;12.442;2024-02-15T13:37:49;11.30;;;2.63;;
69502;SDS011;56704;54.242;12.442;2024-02-15T13:40:18;10.63;;;2.80;;
69502;SDS011;56704;54.242;12.442;2024-02-15T13:42:48;9.27;;;3.22;;
69502;SDS011;56704;54.242;12.442;2024-02-15T13:45:18;11.48;;;3.72;;
69502;SDS011;56704;54.242;12.442;2024-02-15T13:47:45;10.77;;;3.17;;
69502;SDS011;56704;54.242;12.442;2024-02-15T13:50:15;8.53;;;2.93;;
69502;SDS011;56704;54.242;12.442;2024-02-15T13:52:42;11.15;;;3.47;;
69502;SDS011;56704;54.242;12.442;2024-02-15T13:55:10;9.70;;;3.65;;
69502;SDS011;56704;54.242;12.442;2024-02-15T13:57:39;12.88;;;3.60;;
69502;SDS011;56704;54.242;12.442;2024-02-15T14:00:07;10.77;;;3.40;;
69502;SDS011;56704;54.242;12.442;2024-02-15T14:02:38;11.03;;;4.00;;
69502;SDS011;56704;54.242;12.442;2024-02-15T14:05:06;9.90;;;3.03;;
69502;SDS011;56704;54.242;12.442;2024-02-15T14:07:33;8.93;;;2.95;;
69502;SDS011;56704;54.242;12.442;2024-02-15T14:10:01;10.80;;;3.50;;
69502;SDS011;56704;54.242;12.442;2024-02-15T14:12:27;8.95;;;3.08;;
69502;SDS011;56704;54.242;12.442;2024-02-15T14:14:55;10.50;;;3.43;;
69502;SDS011;56704;54.242;12.442;2024-02-15T14:17:22;10.13;;;3.38;;
69502;SDS011;56704;54.242;12.442;2024-02-15T14:19:49;9.82;;;3.75;;
69502;SDS011;56704;54.242;12.442;2024-02-15T14:22:15;11.32;;;3.83;;
69502;SDS011;56704;54.242;12.442;2024-02-15T14:24:42;13.55;;;4.00;;
69502;SDS011;56704;54.242;12.442;2024-02-15T14:27:09;12.60;;;3.50;;
69502;SDS011;56704;54.242;12.442;2024-02-15T14:29:36;10.90;;;3.70;;
69502;SDS011;56704;54.242;12.442;2024-02-15T14:32:11;11.63;;;3.92;;
69502;SDS011;56704;54.242;12.442;2024-02-15T14:34:54;10.75;;;3.65;;
69502;SDS011;56704;54.242;12.442;2024-02-15T14:37:21;9.68;;;3.67;;